sensor_id;sensor_type;location;lat;lon;timestamp;P1;durP1;ratioP1;P2;durP2;ratioP2
67965;SDS011;54749;47.850;9.002;2022-08-19T00:01:31;5.85;;;3.05;;
67965;SDS011;54749;47.850;9.002;2022-08-19T00:04:04;5.20;;;2.55;;
67965;SDS011;54749;47.850;9.002;2022-08-19T00:06:33;6.87;;;3.50;;
67965;SDS011;54749;47.850;9.002;2022-08-19T00:09:03;6.25;;;3.30;;
67965;SDS011;54749;47.850;9.002;2022-08-19T00:11:31;6.95;;;3.40;;
67965;SDS011;54749;47.850;9.002;2022-08-19T00:14:01;10.85;;;5.18;;
67965;SDS011;54749;47.850;9.002;2022-08-19T00:16:27;10.25;;;5.82;;
67965;SDS011;54749;47.850;9.002;2022-08-19T00:18:55;12.33;;;6.10;;
67965;SDS011;54749;47.850;9.002;2022-08-19T00:21:22;10.68;;;5.65;;
67965;SDS011;54749;47.850;9.002;2022-08-19T00:23:50;10.48;;;5.32;;
67965;SDS011;54749;47.850;9.002;2022-08-19T00:26:17;10.10;;;5.07;;
67965;SDS011;54749;47.850;9.002;2022-08-19T00:28:44;9.90;;;5.20;;
67965;SDS011;54749;47.850;9.002;2022-08-19T00:31:10;9.77;;;5.07;;
67965;SDS011;54749;47.850;9.002;2022-08-19T00:33:37;12.32;;;6.40;;
67965;SDS011;54749;47.850;9.002;2022-08-19T00:36:05;12.18;;;6.28;;
67965;SDS011;54749;47.850;9.002;2022-08-19T00:38:34;30.77;;;10.18;;
67965;SDS011;54749;47.850;9.002;2022-08-19T00:41:07;17.45;;;7.10;;
67965;SDS011;54749;47.850;9.002;2022-08-19T00:43:35;26.83;;;9.93;;
67965;SDS011;54749;47.850;9.002;2022-08-19T00:46:01;23.00;;;9.32;;
67965;SDS011;54749;47.850;9.002;2022-08-19T00:48:31;23.63;;;10.27;;
67965;SDS011;54749;47.850;9.002;2022-08-19T00:50:59;20.92;;;9.48;;
67965;SDS011;54749;47.850;9.002;2022-08-19T00:53:28;28.83;;;11.55;;
67965;SDS011;54749;47.850;9.002;2022-08-19T00:55:58;19.53;;;9.50;;
67965;SDS011;54749;47.850;9.002;2022-08-19T00:58:29;21.80;;;9.48;;
67965;SDS011;54749;47.850;9.002;2022-08-19T01:00:58;18.17;;;9.20;;
67965;SDS011;54749;47.850;9.002;2022-08-19T01:03:27;19.23;;;9.15;;
67965;SDS011;54749;47.850;9.002;2022-08-19T01:06:14;17.02;;;8.55;;
67965;SDS011;54749;47.850;9.002;2022-08-19T01:08:45;15.40;;;8.30;;
67965;SDS011;54749;47.850;9.002;2022-08-19T01:11:16;13.73;;;7.00;;
67965;SDS011;54749;47.850;9.002;2022-08-19T01:13:43;15.23;;;8.00;;
67965;SDS011;54749;47.850;9.002;2022-08-19T01:16:16;15.32;;;8.05;;
67965;SDS011;54749;47.850;9.002;2022-08-19T01:18:45;15.65;;;7.63;;
67965;SDS011;54749;47.850;9.002;2022-08-19T01:23:58;14.38;;;7.00;;
67965;SDS011;54749;47.850;9.002;2022-08-19T01:26:26;16.80;;;7.68;;
67965;SDS011;54749;47.850;9.002;2022-08-19T01:28:54;22.90;;;10.05;;
67965;SDS011;54749;47.850;9.002;2022-08-19T01:31:27;15.23;;;7.65;;
67965;SDS011;54749;47.850;9.002;2022-08-19T01:33:59;16.20;;;7.30;;
67965;SDS011;54749;47.850;9.002;2022-08-19T01:36:29;17.75;;;8.48;;
67965;SDS011;54749;47.850;9.002;2022-08-19T01:38:56;18.33;;;8.60;;
67965;SDS011;54749;47.850;9.002;2022-08-19T01:41:24;20.02;;;9.63;;
67965;SDS011;54749;47.850;9.002;2022-08-19T01:43:52;15.52;;;8.25;;
67965;SDS011;54749;47.850;9.002;2022-08-19T01:46:39;14.73;;;7.50;;
67965;SDS011;54749;47.850;9.002;2022-08-19T01:49:08;13.48;;;6.68;;
67965;SDS011;54749;47.850;9.002;2022-08-19T01:51:36;12.18;;;6.25;;
67965;SDS011;54749;47.850;9.002;2022-08-19T01:54:06;11.70;;;6.60;;
67965;SDS011;54749;47.850;9.002;2022-08-19T01:56:34;14.52;;;7.32;;
67965;SDS011;54749;47.850;9.002;2022-08-19T01:59:03;16.40;;;8.17;;
67965;SDS011;54749;47.850;9.002;2022-08-19T02:01:36;14.95;;;7.72;;
67965;SDS011;54749;47.850;9.002;2022-08-19T02:04:03;17.83;;;9.13;;
67965;SDS011;54749;47.850;9.002;2022-08-19T02:06:32;13.70;;;7.68;;
67965;SDS011;54749;47.850;9.002;2022-08-19T02:08:59;18.08;;;8.27;;
67965;SDS011;54749;47.850;9.002;2022-08-19T02:11:28;18.07;;;8.97;;
67965;SDS011;54749;47.850;9.002;2022-08-19T02:14:00;19.00;;;8.27;;
67965;SDS011;54749;47.850;9.002;2022-08-19T02:16:29;13.70;;;6.60;;
67965;SDS011;54749;47.850;9.002;2022-08-19T02:18:57;15.30;;;6.47;;
67965;SDS011;54749;47.850;9.002;2022-08-19T02:21:27;17.90;;;7.80;;
67965;SDS011;54749;47.850;9.002;2022-08-19T02:23:55;18.80;;;8.63;;
67965;SDS011;54749;47.850;9.002;2022-08-19T02:26:22;19.27;;;9.02;;
67965;SDS011;54749;47.850;9.002;2022-08-19T02:28:50;21.70;;;9.43;;
67965;SDS011;54749;47.850;9.002;2022-08-19T02:31:19;16.00;;;7.72;;
67965;SDS011;54749;47.850;9.002;2022-08-19T02:33:51;27.48;;;12.32;;
67965;SDS011;54749;47.850;9.002;2022-08-19T02:36:22;26.20;;;10.30;;
67965;SDS011;54749;47.850;9.002;2022-08-19T02:38:50;19.40;;;8.55;;
67965;SDS011;54749;47.850;9.002;2022-08-19T02:41:25;15.45;;;7.80;;
67965;SDS011;54749;47.850;9.002;2022-08-19T02:43:54;18.33;;;8.07;;
67965;SDS011;54749;47.850;9.002;2022-08-19T02:46:45;17.90;;;8.23;;
67965;SDS011;54749;47.850;9.002;2022-08-19T02:49:13;19.63;;;7.93;;
67965;SDS011;54749;47.850;9.002;2022-08-19T02:51:44;21.00;;;9.48;;
67965;SDS011;54749;47.850;9.002;2022-08-19T02:54:12;24.60;;;10.32;;
67965;SDS011;54749;47.850;9.002;2022-08-19T02:56:40;18.65;;;8.75;;
67965;SDS011;54749;47.850;9.002;2022-08-19T02:59:09;25.38;;;11.18;;
67965;SDS011;54749;47.850;9.002;2022-08-19T03:01:37;24.10;;;11.80;;
67965;SDS011;54749;47.850;9.002;2022-08-19T03:04:07;21.20;;;10.15;;
67965;SDS011;54749;47.850;9.002;2022-08-19T03:06:36;23.33;;;9.90;;
67965;SDS011;54749;47.850;9.002;2022-08-19T03:09:04;27.38;;;11.75;;
67965;SDS011;54749;47.850;9.002;2022-08-19T03:11:31;21.88;;;9.75;;
67965;SDS011;54749;47.850;9.002;2022-08-19T03:13:59;25.73;;;10.83;;
67965;SDS011;54749;47.850;9.002;2022-08-19T03:16:28;25.52;;;10.82;;
67965;SDS011;54749;47.850;9.002;2022-08-19T03:18:59;20.65;;;9.18;;
67965;SDS011;54749;47.850;9.002;2022-08-19T03:21:29;23.73;;;10.18;;
67965;SDS011;54749;47.850;9.002;2022-08-19T03:23:57;20.25;;;9.00;;
67965;SDS011;54749;47.850;9.002;2022-08-19T03:26:26;27.17;;;11.10;;
67965;SDS011;54749;47.850;9.002;2022-08-19T03:28:53;26.13;;;10.88;;
67965;SDS011;54749;47.850;9.002;2022-08-19T03:31:25;33.63;;;13.05;;
67965;SDS011;54749;47.850;9.002;2022-08-19T03:34:17;22.27;;;9.80;;
67965;SDS011;54749;47.850;9.002;2022-08-19T03:36:49;22.95;;;9.88;;
67965;SDS011;54749;47.850;9.002;2022-08-19T03:39:16;26.23;;;10.23;;
67965;SDS011;54749;47.850;9.002;2022-08-19T03:41:44;23.50;;;9.70;;
67965;SDS011;54749;47.850;9.002;2022-08-19T03:44:14;21.67;;;9.07;;
67965;SDS011;54749;47.850;9.002;2022-08-19T03:46:45;24.67;;;10.10;;
67965;SDS011;54749;47.850;9.002;2022-08-19T03:49:14;26.38;;;10.75;;
67965;SDS011;54749;47.850;9.002;2022-08-19T03:51:44;26.73;;;10.23;;
67965;SDS011;54749;47.850;9.002;2022-08-19T03:54:13;24.15;;;9.75;;
67965;SDS011;54749;47.850;9.002;2022-08-19T03:56:42;26.52;;;10.73;;
67965;SDS011;54749;47.850;9.002;2022-08-19T03:59:11;33.10;;;11.20;;
67965;SDS011;54749;47.850;9.002;2022-08-19T04:01:41;39.53;;;13.18;;
67965;SDS011;54749;47.850;9.002;2022-08-19T04:04:08;34.93;;;15.23;;
67965;SDS011;54749;47.850;9.002;2022-08-19T04:06:36;26.75;;;11.18;;
67965;SDS011;54749;47.850;9.002;2022-08-19T04:09:06;25.75;;;10.80;;
67965;SDS011;54749;47.850;9.002;2022-08-19T04:11:39;27.85;;;11.25;;
67965;SDS011;54749;47.850;9.002;2022-08-19T04:14:11;21.00;;;9.15;;
67965;SDS011;54749;47.850;9.002;2022-08-19T04:16:40;25.67;;;11.07;;
67965;SDS011;54749;47.850;9.002;2022-08-19T04:19:07;25.35;;;10.23;;
67965;SDS011;54749;47.850;9.002;2022-08-19T04:21:34;19.67;;;9.05;;
67965;SDS011;54749;47.850;9.002;2022-08-19T04:24:02;21.17;;;9.43;;
67965;SDS011;54749;47.850;9.002;2022-08-19T04:26:30;22.90;;;10.45;;
67965;SDS011;54749;47.850;9.002;2022-08-19T04:29:00;22.77;;;9.87;;
67965;SDS011;54749;47.850;9.002;2022-08-19T04:31:28;25.55;;;9.95;;
67965;SDS011;54749;47.850;9.002;2022-08-19T04:33:58;17.67;;;8.45;;
67965;SDS011;54749;47.850;9.002;2022-08-19T04:36:27;23.20;;;10.05;;
67965;SDS011;54749;47.850;9.002;2022-08-19T04:38:57;22.13;;;9.82;;
67965;SDS011;54749;47.850;9.002;2022-08-19T04:41:25;21.17;;;9.20;;
67965;SDS011;54749;47.850;9.002;2022-08-19T04:44:12;29.17;;;12.57;;
67965;SDS011;54749;47.850;9.002;2022-08-19T04:46:39;24.33;;;12.70;;
67965;SDS011;54749;47.850;9.002;2022-08-19T04:49:18;26.92;;;12.25;;
67965;SDS011;54749;47.850;9.002;2022-08-19T04:51:51;22.50;;;11.00;;
67965;SDS011;54749;47.850;9.002;2022-08-19T04:54:22;26.17;;;12.60;;
67965;SDS011;54749;47.850;9.002;2022-08-19T04:57:05;26.00;;;12.52;;
67965;SDS011;54749;47.850;9.002;2022-08-19T04:59:35;28.13;;;13.43;;
67965;SDS011;54749;47.850;9.002;2022-08-19T05:02:03;24.73;;;12.23;;
67965;SDS011;54749;47.850;9.002;2022-08-19T05:04:32;28.25;;;12.73;;
67965;SDS011;54749;47.850;9.002;2022-08-19T05:07:00;33.50;;;13.33;;
67965;SDS011;54749;47.850;9.002;2022-08-19T05:09:28;39.58;;;14.38;;
67965;SDS011;54749;47.850;9.002;2022-08-19T05:12:16;44.78;;;16.75;;
67965;SDS011;54749;47.850;9.002;2022-08-19T05:14:44;37.58;;;15.73;;
67965;SDS011;54749;47.850;9.002;2022-08-19T05:17:13;31.27;;;12.55;;
67965;SDS011;54749;47.850;9.002;2022-08-19T05:20:00;34.90;;;14.07;;
67965;SDS011;54749;47.850;9.002;2022-08-19T05:22:47;31.70;;;13.43;;
67965;SDS011;54749;47.850;9.002;2022-08-19T05:25:19;38.15;;;13.98;;
67965;SDS011;54749;47.850;9.002;2022-08-19T05:27:47;27.75;;;12.50;;
67965;SDS011;54749;47.850;9.002;2022-08-19T05:30:14;24.77;;;11.27;;
67965;SDS011;54749;47.850;9.002;2022-08-19T05:32:43;29.23;;;12.40;;
67965;SDS011;54749;47.850;9.002;2022-08-19T05:35:10;34.60;;;13.35;;
67965;SDS011;54749;47.850;9.002;2022-08-19T05:37:38;32.33;;;13.10;;
67965;SDS011;54749;47.850;9.002;2022-08-19T05:40:07;23.80;;;11.60;;
67965;SDS011;54749;47.850;9.002;2022-08-19T05:42:35;26.38;;;12.85;;
67965;SDS011;54749;47.850;9.002;2022-08-19T05:45:02;25.17;;;11.30;;
67965;SDS011;54749;47.850;9.002;2022-08-19T05:47:31;31.85;;;13.93;;
67965;SDS011;54749;47.850;9.002;2022-08-19T05:49:58;25.02;;;12.70;;
67965;SDS011;54749;47.850;9.002;2022-08-19T05:52:25;30.98;;;14.82;;
67965;SDS011;54749;47.850;9.002;2022-08-19T05:54:53;35.40;;;17.20;;
67965;SDS011;54749;47.850;9.002;2022-08-19T05:57:22;38.47;;;16.73;;
67965;SDS011;54749;47.850;9.002;2022-08-19T05:59:50;41.28;;;18.42;;
67965;SDS011;54749;47.850;9.002;2022-08-19T06:02:27;36.42;;;16.60;;
67965;SDS011;54749;47.850;9.002;2022-08-19T06:04:55;33.83;;;14.30;;
67965;SDS011;54749;47.850;9.002;2022-08-19T06:07:21;39.10;;;17.42;;
67965;SDS011;54749;47.850;9.002;2022-08-19T06:09:49;39.23;;;17.60;;
67965;SDS011;54749;47.850;9.002;2022-08-19T06:12:26;40.45;;;17.60;;
67965;SDS011;54749;47.850;9.002;2022-08-19T06:15:01;34.00;;;15.35;;
67965;SDS011;54749;47.850;9.002;2022-08-19T06:17:33;35.67;;;16.70;;
67965;SDS011;54749;47.850;9.002;2022-08-19T06:20:05;36.70;;;16.30;;
67965;SDS011;54749;47.850;9.002;2022-08-19T06:22:41;29.93;;;13.83;;
67965;SDS011;54749;47.850;9.002;2022-08-19T06:25:10;37.35;;;16.33;;
67965;SDS011;54749;47.850;9.002;2022-08-19T06:27:38;40.65;;;17.13;;
67965;SDS011;54749;47.850;9.002;2022-08-19T06:30:26;38.08;;;17.92;;
67965;SDS011;54749;47.850;9.002;2022-08-19T06:32:53;40.28;;;18.33;;
67965;SDS011;54749;47.850;9.002;2022-08-19T06:35:20;35.87;;;16.43;;
67965;SDS011;54749;47.850;9.002;2022-08-19T06:37:47;38.72;;;17.10;;
67965;SDS011;54749;47.850;9.002;2022-08-19T06:40:14;36.45;;;16.70;;
67965;SDS011;54749;47.850;9.002;2022-08-19T06:42:40;38.65;;;17.50;;
67965;SDS011;54749;47.850;9.002;2022-08-19T06:45:21;34.92;;;16.45;;
67965;SDS011;54749;47.850;9.002;2022-08-19T06:47:51;31.43;;;14.47;;
67965;SDS011;54749;47.850;9.002;2022-08-19T06:50:22;38.85;;;17.42;;
67965;SDS011;54749;47.850;9.002;2022-08-19T06:52:50;38.20;;;18.20;;
67965;SDS011;54749;47.850;9.002;2022-08-19T06:55:18;39.90;;;17.58;;
67965;SDS011;54749;47.850;9.002;2022-08-19T06:57:46;38.10;;;18.25;;
67965;SDS011;54749;47.850;9.002;2022-08-19T07:00:14;41.30;;;19.97;;
67965;SDS011;54749;47.850;9.002;2022-08-19T07:02:42;44.72;;;21.40;;
67965;SDS011;54749;47.850;9.002;2022-08-19T07:05:21;44.63;;;20.58;;
67965;SDS011;54749;47.850;9.002;2022-08-19T07:07:48;41.33;;;19.23;;
67965;SDS011;54749;47.850;9.002;2022-08-19T07:10:16;41.13;;;18.00;;
67965;SDS011;54749;47.850;9.002;2022-08-19T07:12:44;38.13;;;17.47;;
67965;SDS011;54749;47.850;9.002;2022-08-19T07:15:11;42.22;;;19.85;;
67965;SDS011;54749;47.850;9.002;2022-08-19T07:17:38;43.22;;;19.88;;
67965;SDS011;54749;47.850;9.002;2022-08-19T07:20:07;35.88;;;16.65;;
67965;SDS011;54749;47.850;9.002;2022-08-19T07:22:37;38.83;;;17.55;;
67965;SDS011;54749;47.850;9.002;2022-08-19T07:25:05;43.10;;;19.53;;
67965;SDS011;54749;47.850;9.002;2022-08-19T07:27:33;45.88;;;21.33;;
67965;SDS011;54749;47.850;9.002;2022-08-19T07:30:01;35.70;;;17.00;;
67965;SDS011;54749;47.850;9.002;2022-08-19T07:32:28;28.67;;;13.48;;
67965;SDS011;54749;47.850;9.002;2022-08-19T07:34:58;29.77;;;14.88;;
67965;SDS011;54749;47.850;9.002;2022-08-19T07:37:27;29.50;;;13.73;;
67965;SDS011;54749;47.850;9.002;2022-08-19T07:39:59;35.60;;;17.65;;
67965;SDS011;54749;47.850;9.002;2022-08-19T07:42:27;36.55;;;17.70;;
67965;SDS011;54749;47.850;9.002;2022-08-19T07:44:56;35.13;;;16.73;;
67965;SDS011;54749;47.850;9.002;2022-08-19T07:47:25;28.42;;;14.23;;
67965;SDS011;54749;47.850;9.002;2022-08-19T07:50:15;31.20;;;14.93;;
67965;SDS011;54749;47.850;9.002;2022-08-19T07:52:42;30.17;;;13.95;;
67965;SDS011;54749;47.850;9.002;2022-08-19T07:55:14;34.72;;;17.13;;
67965;SDS011;54749;47.850;9.002;2022-08-19T07:58:03;42.40;;;20.85;;
67965;SDS011;54749;47.850;9.002;2022-08-19T08:00:31;42.92;;;20.73;;
67965;SDS011;54749;47.850;9.002;2022-08-19T08:02:57;34.57;;;17.70;;
67965;SDS011;54749;47.850;9.002;2022-08-19T08:05:24;37.55;;;19.27;;
67965;SDS011;54749;47.850;9.002;2022-08-19T08:08:11;37.45;;;18.92;;
67965;SDS011;54749;47.850;9.002;2022-08-19T08:10:58;39.47;;;19.55;;
67965;SDS011;54749;47.850;9.002;2022-08-19T08:13:26;37.55;;;18.67;;
67965;SDS011;54749;47.850;9.002;2022-08-19T08:15:54;34.97;;;17.87;;
67965;SDS011;54749;47.850;9.002;2022-08-19T08:18:23;38.13;;;19.23;;
67965;SDS011;54749;47.850;9.002;2022-08-19T08:20:56;35.53;;;18.25;;
67965;SDS011;54749;47.850;9.002;2022-08-19T08:26:27;33.08;;;17.75;;
67965;SDS011;54749;47.850;9.002;2022-08-19T08:28:55;26.43;;;13.67;;
67965;SDS011;54749;47.850;9.002;2022-08-19T08:31:22;30.77;;;17.10;;
67965;SDS011;54749;47.850;9.002;2022-08-19T08:33:49;24.50;;;13.38;;
67965;SDS011;54749;47.850;9.002;2022-08-19T08:36:16;25.45;;;13.75;;
67965;SDS011;54749;47.850;9.002;2022-08-19T08:38:44;24.80;;;14.25;;
67965;SDS011;54749;47.850;9.002;2022-08-19T08:43:56;27.58;;;15.30;;
67965;SDS011;54749;47.850;9.002;2022-08-19T08:46:26;23.30;;;13.02;;
67965;SDS011;54749;47.850;9.002;2022-08-19T08:49:24;25.50;;;14.63;;
67965;SDS011;54749;47.850;9.002;2022-08-19T08:51:59;24.92;;;13.02;;
67965;SDS011;54749;47.850;9.002;2022-08-19T08:54:46;21.27;;;12.20;;
67965;SDS011;54749;47.850;9.002;2022-08-19T08:57:35;30.90;;;15.32;;
67965;SDS011;54749;47.850;9.002;2022-08-19T09:00:14;22.33;;;12.65;;
67965;SDS011;54749;47.850;9.002;2022-08-19T09:02:43;22.63;;;12.75;;
67965;SDS011;54749;47.850;9.002;2022-08-19T09:05:17;26.00;;;14.30;;
67965;SDS011;54749;47.850;9.002;2022-08-19T09:10:53;21.88;;;11.38;;
67965;SDS011;54749;47.850;9.002;2022-08-19T09:13:25;24.35;;;14.23;;
67965;SDS011;54749;47.850;9.002;2022-08-19T09:16:05;31.20;;;17.13;;
67965;SDS011;54749;47.850;9.002;2022-08-19T09:18:42;21.10;;;12.27;;
67965;SDS011;54749;47.850;9.002;2022-08-19T09:21:14;24.23;;;13.57;;
67965;SDS011;54749;47.850;9.002;2022-08-19T09:23:42;25.95;;;14.00;;
67965;SDS011;54749;47.850;9.002;2022-08-19T09:26:11;26.50;;;14.60;;
67965;SDS011;54749;47.850;9.002;2022-08-19T09:28:46;28.40;;;14.95;;
67965;SDS011;54749;47.850;9.002;2022-08-19T09:31:16;23.10;;;12.57;;
67965;SDS011;54749;47.850;9.002;2022-08-19T09:33:46;20.47;;;11.40;;
67965;SDS011;54749;47.850;9.002;2022-08-19T09:36:14;22.35;;;12.07;;
67965;SDS011;54749;47.850;9.002;2022-08-19T09:38:59;26.83;;;15.23;;
67965;SDS011;54749;47.850;9.002;2022-08-19T09:41:27;22.77;;;12.05;;
67965;SDS011;54749;47.850;9.002;2022-08-19T09:43:55;32.55;;;18.25;;
67965;SDS011;54749;47.850;9.002;2022-08-19T09:46:28;23.67;;;13.33;;
67965;SDS011;54749;47.850;9.002;2022-08-19T09:48:58;23.98;;;13.65;;
67965;SDS011;54749;47.850;9.002;2022-08-19T09:51:32;28.17;;;14.80;;
67965;SDS011;54749;47.850;9.002;2022-08-19T09:54:01;34.13;;;18.08;;
67965;SDS011;54749;47.850;9.002;2022-08-19T09:56:31;31.38;;;15.65;;
67965;SDS011;54749;47.850;9.002;2022-08-19T09:59:00;21.40;;;12.70;;
67965;SDS011;54749;47.850;9.002;2022-08-19T10:01:30;27.60;;;13.75;;
67965;SDS011;54749;47.850;9.002;2022-08-19T10:03:59;24.10;;;13.73;;
67965;SDS011;54749;47.850;9.002;2022-08-19T10:06:33;26.65;;;14.23;;
67965;SDS011;54749;47.850;9.002;2022-08-19T10:09:13;24.58;;;13.82;;
67965;SDS011;54749;47.850;9.002;2022-08-19T10:11:42;26.50;;;14.17;;
67965;SDS011;54749;47.850;9.002;2022-08-19T10:14:20;31.58;;;17.42;;
67965;SDS011;54749;47.850;9.002;2022-08-19T10:16:49;27.70;;;15.73;;
67965;SDS011;54749;47.850;9.002;2022-08-19T10:19:18;25.02;;;14.25;;
67965;SDS011;54749;47.850;9.002;2022-08-19T10:21:52;28.48;;;16.10;;
67965;SDS011;54749;47.850;9.002;2022-08-19T10:24:24;21.97;;;12.70;;
67965;SDS011;54749;47.850;9.002;2022-08-19T10:26:53;24.10;;;12.80;;
67965;SDS011;54749;47.850;9.002;2022-08-19T10:29:23;23.17;;;14.02;;
67965;SDS011;54749;47.850;9.002;2022-08-19T10:31:59;27.45;;;15.15;;
67965;SDS011;54749;47.850;9.002;2022-08-19T10:34:29;24.73;;;14.75;;
67965;SDS011;54749;47.850;9.002;2022-08-19T10:36:57;31.73;;;16.83;;
67965;SDS011;54749;47.850;9.002;2022-08-19T10:39:27;26.13;;;14.85;;
67965;SDS011;54749;47.850;9.002;2022-08-19T10:42:09;33.30;;;18.25;;
67965;SDS011;54749;47.850;9.002;2022-08-19T10:44:37;27.70;;;15.80;;
67965;SDS011;54749;47.850;9.002;2022-08-19T10:47:04;35.95;;;20.17;;
67965;SDS011;54749;47.850;9.002;2022-08-19T10:49:50;36.93;;;20.20;;
67965;SDS011;54749;47.850;9.002;2022-08-19T10:52:39;39.55;;;20.10;;
67965;SDS011;54749;47.850;9.002;2022-08-19T10:55:17;40.05;;;21.33;;
67965;SDS011;54749;47.850;9.002;2022-08-19T10:58:09;37.90;;;19.13;;
67965;SDS011;54749;47.850;9.002;2022-08-19T11:00:40;39.42;;;19.85;;
67965;SDS011;54749;47.850;9.002;2022-08-19T11:03:09;29.30;;;15.33;;
67965;SDS011;54749;47.850;9.002;2022-08-19T11:05:36;38.60;;;19.30;;
67965;SDS011;54749;47.850;9.002;2022-08-19T11:08:07;35.90;;;18.13;;
67965;SDS011;54749;47.850;9.002;2022-08-19T11:10:49;43.63;;;22.08;;
67965;SDS011;54749;47.850;9.002;2022-08-19T11:13:17;32.15;;;16.75;;
67965;SDS011;54749;47.850;9.002;2022-08-19T11:15:43;37.03;;;18.90;;
67965;SDS011;54749;47.850;9.002;2022-08-19T11:18:12;36.95;;;18.02;;
67965;SDS011;54749;47.850;9.002;2022-08-19T11:20:39;41.50;;;20.85;;
67965;SDS011;54749;47.850;9.002;2022-08-19T11:23:06;35.63;;;18.23;;
67965;SDS011;54749;47.850;9.002;2022-08-19T11:25:32;32.08;;;16.50;;
67965;SDS011;54749;47.850;9.002;2022-08-19T11:28:01;29.87;;;15.20;;
67965;SDS011;54749;47.850;9.002;2022-08-19T11:30:27;35.47;;;18.58;;
67965;SDS011;54749;47.850;9.002;2022-08-19T11:32:54;43.28;;;22.70;;
67965;SDS011;54749;47.850;9.002;2022-08-19T11:35:21;35.50;;;18.58;;
67965;SDS011;54749;47.850;9.002;2022-08-19T11:37:49;35.03;;;18.63;;
67965;SDS011;54749;47.850;9.002;2022-08-19T11:40:16;35.97;;;18.07;;
67965;SDS011;54749;47.850;9.002;2022-08-19T11:42:43;32.30;;;16.42;;
67965;SDS011;54749;47.850;9.002;2022-08-19T11:45:26;27.90;;;14.68;;
67965;SDS011;54749;47.850;9.002;2022-08-19T11:47:54;36.15;;;18.23;;
67965;SDS011;54749;47.850;9.002;2022-08-19T11:50:22;31.58;;;16.63;;
67965;SDS011;54749;47.850;9.002;2022-08-19T11:52:53;37.33;;;21.00;;
67965;SDS011;54749;47.850;9.002;2022-08-19T11:55:21;35.70;;;17.98;;
67965;SDS011;54749;47.850;9.002;2022-08-19T11:57:49;32.28;;;17.88;;
67965;SDS011;54749;47.850;9.002;2022-08-19T12:00:16;40.30;;;20.85;;
67965;SDS011;54749;47.850;9.002;2022-08-19T12:02:43;35.78;;;19.38;;
67965;SDS011;54749;47.850;9.002;2022-08-19T12:05:10;34.23;;;19.00;;
67965;SDS011;54749;47.850;9.002;2022-08-19T12:07:38;37.80;;;20.75;;
67965;SDS011;54749;47.850;9.002;2022-08-19T12:10:07;47.92;;;25.52;;
67965;SDS011;54749;47.850;9.002;2022-08-19T12:12:36;43.72;;;24.88;;
67965;SDS011;54749;47.850;9.002;2022-08-19T12:15:09;38.10;;;20.20;;
67965;SDS011;54749;47.850;9.002;2022-08-19T12:17:37;39.57;;;21.77;;
67965;SDS011;54749;47.850;9.002;2022-08-19T12:20:04;36.17;;;19.95;;
67965;SDS011;54749;47.850;9.002;2022-08-19T12:22:33;35.38;;;18.10;;
67965;SDS011;54749;47.850;9.002;2022-08-19T12:25:01;40.53;;;20.92;;
67965;SDS011;54749;47.850;9.002;2022-08-19T12:27:28;43.05;;;22.88;;
67965;SDS011;54749;47.850;9.002;2022-08-19T12:30:07;35.77;;;20.90;;
67965;SDS011;54749;47.850;9.002;2022-08-19T12:32:36;31.65;;;17.63;;
67965;SDS011;54749;47.850;9.002;2022-08-19T12:35:04;33.40;;;19.08;;
67965;SDS011;54749;47.850;9.002;2022-08-19T12:37:31;33.55;;;19.58;;
67965;SDS011;54749;47.850;9.002;2022-08-19T12:39:59;39.80;;;22.70;;
67965;SDS011;54749;47.850;9.002;2022-08-19T12:42:26;37.93;;;22.13;;
67965;SDS011;54749;47.850;9.002;2022-08-19T12:44:53;38.60;;;20.95;;
67965;SDS011;54749;47.850;9.002;2022-08-19T12:47:20;37.45;;;21.83;;
67965;SDS011;54749;47.850;9.002;2022-08-19T12:49:48;32.22;;;18.83;;
67965;SDS011;54749;47.850;9.002;2022-08-19T12:52:22;36.20;;;20.77;;
67965;SDS011;54749;47.850;9.002;2022-08-19T12:54:51;34.63;;;20.80;;
67965;SDS011;54749;47.850;9.002;2022-08-19T12:57:26;34.08;;;20.55;;
67965;SDS011;54749;47.850;9.002;2022-08-19T13:00:04;35.50;;;21.40;;
67965;SDS011;54749;47.850;9.002;2022-08-19T13:02:41;38.03;;;22.70;;
67965;SDS011;54749;47.850;9.002;2022-08-19T13:05:13;30.48;;;19.13;;
67965;SDS011;54749;47.850;9.002;2022-08-19T13:07:42;32.80;;;18.90;;
67965;SDS011;54749;47.850;9.002;2022-08-19T13:10:11;37.80;;;22.95;;
67965;SDS011;54749;47.850;9.002;2022-08-19T13:12:42;34.38;;;20.80;;
67965;SDS011;54749;47.850;9.002;2022-08-19T13:15:09;33.53;;;20.02;;
67965;SDS011;54749;47.850;9.002;2022-08-19T13:17:38;36.17;;;21.00;;
67965;SDS011;54749;47.850;9.002;2022-08-19T13:20:07;30.13;;;17.73;;
67965;SDS011;54749;47.850;9.002;2022-08-19T13:22:36;34.75;;;20.48;;
67965;SDS011;54749;47.850;9.002;2022-08-19T13:25:04;33.70;;;20.08;;
67965;SDS011;54749;47.850;9.002;2022-08-19T13:27:32;37.10;;;22.00;;
67965;SDS011;54749;47.850;9.002;2022-08-19T13:29:59;32.42;;;19.50;;
67965;SDS011;54749;47.850;9.002;2022-08-19T13:32:45;30.33;;;18.17;;
67965;SDS011;54749;47.850;9.002;2022-08-19T13:35:31;31.10;;;18.88;;
67965;SDS011;54749;47.850;9.002;2022-08-19T13:37:58;28.02;;;16.75;;
67965;SDS011;54749;47.850;9.002;2022-08-19T13:40:26;34.00;;;20.35;;
67965;SDS011;54749;47.850;9.002;2022-08-19T13:42:53;26.75;;;15.82;;
67965;SDS011;54749;47.850;9.002;2022-08-19T13:45:22;29.07;;;16.90;;
67965;SDS011;54749;47.850;9.002;2022-08-19T13:47:51;31.15;;;18.75;;
67965;SDS011;54749;47.850;9.002;2022-08-19T13:50:27;36.38;;;21.88;;
67965;SDS011;54749;47.850;9.002;2022-08-19T13:52:55;31.70;;;18.15;;
67965;SDS011;54749;47.850;9.002;2022-08-19T13:55:23;28.77;;;16.92;;
67965;SDS011;54749;47.850;9.002;2022-08-19T13:57:54;26.80;;;16.80;;
67965;SDS011;54749;47.850;9.002;2022-08-19T14:00:23;36.05;;;21.08;;
67965;SDS011;54749;47.850;9.002;2022-08-19T14:02:54;32.47;;;19.95;;
67965;SDS011;54749;47.850;9.002;2022-08-19T14:05:23;30.60;;;18.77;;
67965;SDS011;54749;47.850;9.002;2022-08-19T14:07:51;29.27;;;17.10;;
67965;SDS011;54749;47.850;9.002;2022-08-19T14:10:19;23.83;;;15.13;;
67965;SDS011;54749;47.850;9.002;2022-08-19T14:12:47;30.80;;;16.98;;
67965;SDS011;54749;47.850;9.002;2022-08-19T14:15:14;26.75;;;16.58;;
67965;SDS011;54749;47.850;9.002;2022-08-19T14:17:42;26.85;;;15.73;;
67965;SDS011;54749;47.850;9.002;2022-08-19T14:20:11;30.88;;;19.38;;
67965;SDS011;54749;47.850;9.002;2022-08-19T14:22:44;28.63;;;17.67;;
67965;SDS011;54749;47.850;9.002;2022-08-19T14:25:13;30.75;;;17.77;;
67965;SDS011;54749;47.850;9.002;2022-08-19T14:27:43;29.23;;;18.20;;
67965;SDS011;54749;47.850;9.002;2022-08-19T14:30:12;25.83;;;15.30;;
67965;SDS011;54749;47.850;9.002;2022-08-19T14:32:41;25.58;;;15.55;;
67965;SDS011;54749;47.850;9.002;2022-08-19T14:35:12;29.67;;;16.80;;
67965;SDS011;54749;47.850;9.002;2022-08-19T14:37:41;25.58;;;15.82;;
67965;SDS011;54749;47.850;9.002;2022-08-19T14:40:12;32.00;;;20.05;;
67965;SDS011;54749;47.850;9.002;2022-08-19T14:42:41;27.02;;;14.90;;
67965;SDS011;54749;47.850;9.002;2022-08-19T14:45:10;33.78;;;21.27;;
67965;SDS011;54749;47.850;9.002;2022-08-19T14:47:37;30.97;;;17.87;;
67965;SDS011;54749;47.850;9.002;2022-08-19T14:50:10;35.55;;;21.30;;
67965;SDS011;54749;47.850;9.002;2022-08-19T14:52:44;34.70;;;20.08;;
67965;SDS011;54749;47.850;9.002;2022-08-19T14:55:17;35.17;;;20.98;;
67965;SDS011;54749;47.850;9.002;2022-08-19T14:57:44;34.50;;;20.63;;